Time;durP1;ratioP1;P1;durP2;ratioP2;P2;SDS_P1;SDS_P2;PMS_P1;PMS_P2;Temp;Humidity;BMP_temperature;BMP_pressure;BME280_temperature;BME280_humidity;BME280_pressure;Samples;Min_cycle;Max_cycle;Signal;HPM_P1;HPM_P2
2023/12/29 00:01:56;;;;;;;1.45;1.27;;;10.10;99.90;;;;;;5029453;28;20049;-75
2023/12/29 00:04:22;;;;;;;1.38;0.75;;;10.10;99.90;;;;;;5012673;28;20106;-77
2023/12/29 00:06:48;;;;;;;3.35;1.05;;;10.10;99.90;;;;;;5032148;28;20057;-78
2023/12/29 00:09:19;;;;;;;2.28;1.35;;;10.10;99.90;;;;;;5033030;28;20116;-76
2023/12/29 00:11:50;;;;;;;5.03;1.05;;;10.10;99.90;;;;;;5016060;28;20052;-75
2023/12/29 00:14:17;;;;;;;3.40;0.60;;;10.10;99.90;;;;;;5027076;28;20057;-76
2023/12/29 00:16:46;;;;;;;8.68;1.85;;;10.10;99.90;;;;;;5031219;28;20046;-77
2023/12/29 00:19:12;;;;;;;3.70;0.90;;;10.00;99.90;;;;;;5037810;28;20076;-76
2023/12/29 00:21:38;;;;;;;3.70;0.90;;;10.10;99.90;;;;;;5033486;28;20077;-72
2023/12/29 00:24:04;;;;;;;1.75;0.47;;;10.10;99.90;;;;;;5032935;28;20107;-75
2023/12/29 00:26:30;;;;;;;1.25;0.70;;;10.10;99.90;;;;;;5029464;28;20223;-77
2023/12/29 00:28:56;;;;;;;3.00;1.27;;;10.00;99.90;;;;;;5012628;28;20045;-77
2023/12/29 00:31:22;;;;;;;5.88;0.93;;;10.00;99.90;;;;;;5033099;28;20038;-77
2023/12/29 00:33:51;;;;;;;8.55;1.15;;;10.00;99.90;;;;;;5028691;28;20065;-72
2023/12/29 00:36:18;;;;;;;3.58;0.52;;;10.00;99.90;;;;;;5033446;28;20109;-72
2023/12/29 00:38:44;;;;;;;1.25;0.77;;;10.00;99.90;;;;;;5031938;28;20497;-76
2023/12/29 00:41:10;;;;;;;11.80;1.15;;;10.00;99.90;;;;;;5029665;28;20045;-75
2023/12/29 00:43:36;;;;;;;3.38;1.48;;;10.00;99.90;;;;;;5033252;28;20037;-76
2023/12/29 00:46:03;;;;;;;2.75;0.82;;;9.90;99.90;;;;;;5041358;28;20881;-76
2023/12/29 00:48:29;;;;;;;2.40;0.95;;;9.90;99.90;;;;;;5030878;28;20045;-75
2023/12/29 00:50:55;;;;;;;5.05;2.03;;;9.90;99.90;;;;;;5038780;28;20041;-78
2023/12/29 00:53:21;;;;;;;5.22;1.00;;;9.90;99.90;;;;;;5036288;28;20047;-76
2023/12/29 00:55:47;;;;;;;3.35;1.10;;;9.90;99.90;;;;;;5034564;28;20116;-76
2023/12/29 00:58:13;;;;;;;7.10;2.40;;;9.90;99.90;;;;;;5034182;28;20049;-77
2023/12/29 01:00:39;;;;;;;5.63;1.88;;;9.90;99.90;;;;;;5030362;28;20041;-76
2023/12/29 01:03:05;;;;;;;2.70;1.30;;;9.90;99.90;;;;;;5033151;28;20128;-76
2023/12/29 01:05:31;;;;;;;6.22;1.15;;;9.90;99.90;;;;;;5058114;28;20071;-77
2023/12/29 01:07:57;;;;;;;4.63;1.27;;;9.90;99.90;;;;;;5018369;28;20502;-77
2023/12/29 01:10:23;;;;;;;3.05;0.80;;;9.90;99.90;;;;;;5037161;28;20072;-77
2023/12/29 01:12:48;;;;;;;3.17;1.13;;;9.80;99.90;;;;;;5033402;28;20057;-76
2023/12/29 01:15:14;;;;;;;6.47;1.58;;;9.90;99.90;;;;;;5037963;28;20500;-77
2023/12/29 01:17:40;;;;;;;3.63;0.95;;;9.80;99.90;;;;;;5033453;28;20044;-77
2023/12/29 01:20:07;;;;;;;5.30;1.40;;;9.80;99.90;;;;;;5038080;28;20040;-74
2023/12/29 01:22:33;;;;;;;6.30;1.63;;;9.90;99.90;;;;;;5033093;28;20072;-75
2023/12/29 01:25:00;;;;;;;2.17;1.17;;;9.90;99.90;;;;;;5037185;28;20161;-75
2023/12/29 01:27:26;;;;;;;2.25;1.42;;;9.90;99.90;;;;;;5035684;28;20140;-76
2023/12/29 01:29:52;;;;;;;2.05;0.82;;;9.90;99.90;;;;;;5018947;28;20068;-77
2023/12/29 01:32:19;;;;;;;2.25;1.25;;;9.90;99.90;;;;;;5020591;28;20088;-75
2023/12/29 01:34:45;;;;;;;6.05;1.45;;;9.90;99.90;;;;;;5033213;28;20029;-75
2023/12/29 01:37:10;;;;;;;1.60;0.70;;;9.90;99.90;;;;;;5044446;28;20048;-77
2023/12/29 01:39:36;;;;;;;10.00;1.30;;;9.90;99.90;;;;;;5031573;28;20052;-77
2023/12/29 01:42:02;;;;;;;1.48;0.65;;;9.90;99.90;;;;;;5035283;28;20049;-75
2023/12/29 01:44:28;;;;;;;4.03;1.17;;;9.90;99.90;;;;;;5038990;28;20068;-77
2023/12/29 01:46:56;;;;;;;6.57;1.58;;;9.90;99.90;;;;;;5036614;28;20378;-77
2023/12/29 01:49:22;;;;;;;7.45;1.23;;;9.90;99.90;;;;;;5036383;28;20045;-74
2023/12/29 01:51:55;;;;;;;5.32;1.25;;;9.90;99.90;;;;;;5042316;28;20049;-76
2023/12/29 01:54:23;;;;;;;2.38;1.08;;;9.80;99.90;;;;;;5016640;28;20045;-76
2023/12/29 01:56:56;;;;;;;2.65;0.80;;;9.80;99.90;;;;;;5021074;28;20041;-76
2023/12/29 01:59:23;;;;;;;5.97;1.02;;;9.80;99.90;;;;;;5024407;28;20484;-77
2023/12/29 02:01:48;;;;;;;6.57;1.30;;;9.80;99.90;;;;;;5035665;28;20045;-76
2023/12/29 02:04:16;;;;;;;3.00;1.33;;;9.80;99.90;;;;;;5032667;28;20099;-76
2023/12/29 02:06:42;;;;;;;8.52;1.48;;;9.80;99.90;;;;;;5045376;28;20075;-75
2023/12/29 02:09:09;;;;;;;5.55;1.80;;;9.80;99.90;;;;;;5041080;28;20088;-73
2023/12/29 02:11:35;;;;;;;4.32;1.48;;;9.90;99.90;;;;;;5042758;28;20030;-73
2023/12/29 02:14:02;;;;;;;7.22;1.17;;;9.90;99.90;;;;;;5037563;28;20111;-75
2023/12/29 02:16:55;;;;;;;5.63;1.35;;;10.00;99.90;;;;;;5020448;28;20102;-72
2023/12/29 02:19:31;;;;;;;5.68;1.17;;;10.00;99.90;;;;;;5016645;28;20041;-74
2023/12/29 02:21:57;;;;;;;4.45;1.08;;;10.10;99.90;;;;;;5032363;28;20045;-75
2023/12/29 02:24:22;;;;;;;6.55;1.25;;;10.10;99.90;;;;;;5036571;28;20037;-76
2023/12/29 02:26:55;;;;;;;6.22;0.60;;;10.00;99.90;;;;;;5035116;28;20116;-75
2023/12/29 02:29:24;;;;;;;5.53;0.90;;;10.00;99.90;;;;;;5036485;28;20344;-73
2023/12/29 02:31:54;;;;;;;1.48;0.70;;;10.00;99.90;;;;;;5039657;28;20544;-77
2023/12/29 02:34:23;;;;;;;3.92;0.57;;;10.00;99.90;;;;;;5030956;28;20493;-76
2023/12/29 02:36:50;;;;;;;9.02;1.70;;;9.90;99.90;;;;;;5040146;28;20047;-76
2023/12/29 02:39:16;;;;;;;6.18;0.57;;;9.90;99.90;;;;;;5030145;28;20076;-75
2023/12/29 02:41:42;;;;;;;3.03;1.25;;;9.80;99.90;;;;;;5068159;28;20041;-75
2023/12/29 02:44:08;;;;;;;8.48;1.70;;;9.80;99.90;;;;;;5040895;28;20106;-73
2023/12/29 02:46:34;;;;;;;6.30;1.58;;;9.70;99.90;;;;;;5035347;28;20068;-76
2023/12/29 02:49:00;;;;;;;9.60;1.02;;;9.70;99.90;;;;;;5032774;28;20041;-77
2023/12/29 02:51:25;;;;;;;10.15;1.48;;;9.70;99.90;;;;;;5039319;28;20791;-76
2023/12/29 02:53:51;;;;;;;6.45;1.30;;;9.70;99.90;;;;;;5032358;28;20068;-77
2023/12/29 02:56:17;;;;;;;2.42;0.85;;;9.70;99.90;;;;;;5039740;28;20045;-74
2023/12/29 02:58:45;;;;;;;7.30;1.33;;;9.60;99.90;;;;;;5033749;28;20044;-76
2023/12/29 03:01:11;;;;;;;6.10;1.20;;;9.60;99.90;;;;;;5019741;28;20053;-75
2023/12/29 03:03:39;;;;;;;6.10;1.33;;;9.60;99.90;;;;;;5035946;28;20042;-76
2023/12/29 03:06:06;;;;;;;3.03;1.05;;;9.60;99.90;;;;;;5035489;28;20073;-76
2023/12/29 03:08:32;;;;;;;5.40;1.05;;;9.60;99.90;;;;;;5030748;28;20045;-75
2023/12/29 03:10:58;;;;;;;10.05;1.80;;;9.60;99.90;;;;;;5050254;28;20038;-77
2023/12/29 03:13:24;;;;;;;6.00;2.38;;;9.70;99.90;;;;;;5034763;28;20056;-77
2023/12/29 03:15:50;;;;;;;8.38;1.25;;;9.70;99.90;;;;;;5031264;28;20462;-75
2023/12/29 03:18:16;;;;;;;7.55;0.95;;;9.80;99.90;;;;;;5018846;28;20037;-77
2023/12/29 03:20:42;;;;;;;7.63;1.58;;;9.90;99.90;;;;;;5030752;28;20041;-76
2023/12/29 03:23:07;;;;;;;3.92;0.60;;;9.90;99.90;;;;;;5035045;28;20168;-75
2023/12/29 03:25:33;;;;;;;6.75;1.30;;;9.80;99.90;;;;;;5029433;28;20084;-76
2023/12/29 03:28:00;;;;;;;12.20;1.63;;;9.80;99.90;;;;;;5030920;28;20056;-76
2023/12/29 03:30:26;;;;;;;5.32;1.23;;;9.80;99.90;;;;;;5030992;28;20563;-76
2023/12/29 03:32:52;;;;;;;6.97;1.30;;;9.70;99.90;;;;;;5034810;28;20041;-76
2023/12/29 03:35:17;;;;;;;7.05;1.88;;;9.70;99.90;;;;;;5034389;28;20481;-76
2023/12/29 03:37:43;;;;;;;7.63;1.25;;;9.70;99.90;;;;;;5038486;28;20099;-76
2023/12/29 03:40:09;;;;;;;17.15;1.58;;;9.70;99.90;;;;;;5061218;28;20064;-76
2023/12/29 03:42:35;;;;;;;8.68;1.25;;;9.60;99.90;;;;;;5030947;28;20048;-76
2023/12/29 03:45:01;;;;;;;12.77;1.88;;;9.60;99.90;;;;;;5039247;28;20120;-76
2023/12/29 03:47:27;;;;;;;12.48;1.73;;;9.60;99.90;;;;;;5030330;28;20477;-75
2023/12/29 03:49:53;;;;;;;6.63;0.93;;;9.60;99.90;;;;;;5018454;28;20046;-76
2023/12/29 03:52:19;;;;;;;13.27;2.72;;;9.70;99.90;;;;;;5028131;28;20037;-76
2023/12/29 03:54:45;;;;;;;10.65;3.00;;;9.60;99.90;;;;;;5031297;28;20041;-77
2023/12/29 03:57:10;;;;;;;10.43;1.75;;;9.60;99.90;;;;;;5037105;28;20051;-73
2023/12/29 03:59:37;;;;;;;8.05;1.75;;;9.60;99.90;;;;;;5040488;28;20500;-76
2023/12/29 04:02:03;;;;;;;6.10;0.77;;;9.70;99.90;;;;;;5030405;28;20053;-76
2023/12/29 04:04:29;;;;;;;10.38;2.25;;;9.60;99.90;;;;;;5031178;28;20052;-73
2023/12/29 04:06:55;;;;;;;11.75;1.75;;;9.60;99.90;;;;;;5033526;28;20391;-75
2023/12/29 04:09:21;;;;;;;13.77;2.03;;;9.60;99.90;;;;;;5034130;28;20034;-75
2023/12/29 04:11:47;;;;;;;18.13;2.25;;;9.70;99.90;;;;;;5034759;28;20079;-76
2023/12/29 04:14:13;;;;;;;4.68;1.00;;;9.60;99.90;;;;;;5034656;28;20638;-76
2023/12/29 04:16:39;;;;;;;13.80;1.40;;;9.60;99.90;;;;;;5038396;28;20067;-76
2023/12/29 04:19:05;;;;;;;4.57;1.25;;;9.60;99.90;;;;;;5029804;28;20072;-76
2023/12/29 04:21:31;;;;;;;16.35;2.13;;;9.70;99.90;;;;;;5034621;28;20117;-79
2023/12/29 04:23:56;;;;;;;7.43;1.88;;;9.70;99.90;;;;;;5032568;28;20052;-76
2023/12/29 04:26:22;;;;;;;6.82;1.75;;;9.70;99.90;;;;;;5014137;28;20071;-74
2023/12/29 04:28:48;;;;;;;8.82;1.75;;;9.70;99.90;;;;;;5030109;28;20049;-75
2023/12/29 04:31:14;;;;;;;5.57;1.33;;;9.70;99.90;;;;;;5013305;28;20046;-75
2023/12/29 04:33:39;;;;;;;8.25;2.33;;;9.70;99.90;;;;;;5036603;28;20464;-73
2023/12/29 04:36:05;;;;;;;12.60;2.28;;;9.70;99.90;;;;;;5034997;28;20052;-76
2023/12/29 04:38:31;;;;;;;6.78;1.42;;;9.70;99.90;;;;;;5032782;28;20498;-75
2023/12/29 04:40:57;;;;;;;11.18;1.90;;;9.80;99.90;;;;;;5036902;28;20045;-74
2023/12/29 04:43:23;;;;;;;4.25;1.73;;;9.80;99.90;;;;;;5030142;28;20485;-74
2023/12/29 04:45:48;;;;;;;3.78;1.25;;;9.80;99.90;;;;;;5015581;28;20452;-75
2023/12/29 04:48:14;;;;;;;4.35;1.48;;;9.70;99.90;;;;;;5033827;28;20037;-71
2023/12/29 04:50:40;;;;;;;7.65;1.55;;;9.70;99.90;;;;;;5033651;28;20083;-73
2023/12/29 04:53:06;;;;;;;5.82;0.93;;;9.70;99.90;;;;;;5037392;28;20041;-75
2023/12/29 04:55:31;;;;;;;15.13;2.45;;;9.70;99.90;;;;;;5033576;28;20033;-75
2023/12/29 04:57:57;;;;;;;6.90;1.48;;;9.70;99.90;;;;;;5041641;28;20048;-71
2023/12/29 05:00:23;;;;;;;11.75;1.10;;;9.70;99.90;;;;;;5036354;28;20107;-75
2023/12/29 05:02:49;;;;;;;6.25;0.90;;;9.70;99.90;;;;;;5036921;28;20103;-75
2023/12/29 05:05:15;;;;;;;7.97;1.27;;;9.70;99.90;;;;;;5033803;28;20041;-75
2023/12/29 05:07:41;;;;;;;12.10;1.52;;;9.70;99.90;;;;;;5012773;28;20140;-75
2023/12/29 05:10:07;;;;;;;9.05;2.15;;;9.80;99.90;;;;;;5042001;28;20116;-75
2023/12/29 05:12:33;;;;;;;10.80;1.80;;;9.80;99.90;;;;;;5027276;28;20466;-74
2023/12/29 05:14:59;;;;;;;6.88;1.23;;;9.80;99.90;;;;;;5037619;28;20067;-75
2023/12/29 05:17:24;;;;;;;5.53;1.15;;;9.80;99.90;;;;;;5038224;28;20512;-74
2023/12/29 05:19:50;;;;;;;20.55;1.80;;;9.80;99.90;;;;;;5037632;28;20057;-74
2023/12/29 05:22:17;;;;;;;9.63;1.10;;;9.80;99.90;;;;;;5036697;28;20056;-75
2023/12/29 05:24:44;;;;;;;15.32;1.20;;;9.70;99.90;;;;;;5070926;28;20063;-75
2023/12/29 05:27:11;;;;;;;5.65;1.23;;;9.70;99.90;;;;;;5039434;28;20508;-74
2023/12/29 05:29:36;;;;;;;2.92;1.38;;;9.80;99.90;;;;;;5037033;28;20044;-74
2023/12/29 05:32:06;;;;;;;9.07;1.80;;;9.80;99.90;;;;;;5032927;28;20113;-75
2023/12/29 05:34:32;;;;;;;6.30;1.23;;;9.70;99.90;;;;;;5032376;28;20172;-74
2023/12/29 05:36:57;;;;;;;7.15;0.88;;;9.70;99.90;;;;;;5033569;28;20116;-75
2023/12/29 05:39:24;;;;;;;8.15;1.10;;;9.70;99.90;;;;;;5027382;28;20047;-74
2023/12/29 05:41:50;;;;;;;10.38;2.00;;;9.70;99.90;;;;;;5032771;28;20417;-74
2023/12/29 05:44:16;;;;;;;10.90;2.03;;;9.80;99.90;;;;;;5034490;28;20052;-74
2023/12/29 05:46:45;;;;;;;8.10;1.55;;;9.70;99.90;;;;;;5037557;28;20072;-75
2023/12/29 05:49:11;;;;;;;15.50;1.13;;;9.80;99.90;;;;;;5035931;28;20053;-75
2023/12/29 05:51:37;;;;;;;5.82;1.45;;;9.80;99.90;;;;;;5037404;28;20040;-73
2023/12/29 05:54:03;;;;;;;7.18;2.00;;;9.80;99.90;;;;;;5019897;28;20041;-75
2023/12/29 05:56:29;;;;;;;5.82;1.35;;;9.80;99.90;;;;;;5029771;28;20041;-74
2023/12/29 05:58:55;;;;;;;11.13;1.02;;;9.80;99.90;;;;;;5033144;28;20203;-74
2023/12/29 06:01:20;;;;;;;7.40;1.33;;;9.80;99.90;;;;;;5036731;28;20520;-73
2023/12/29 06:03:46;;;;;;;1.75;0.52;;;9.80;99.90;;;;;;5032450;28;20041;-75
2023/12/29 06:06:12;;;;;;;6.65;0.93;;;9.80;99.90;;;;;;5036926;28;20052;-75
2023/12/29 06:08:38;;;;;;;10.55;1.88;;;9.70;99.90;;;;;;5028720;28;20050;-76
2023/12/29 06:11:04;;;;;;;9.82;1.88;;;9.70;99.90;;;;;;5036325;28;20076;-75
2023/12/29 06:13:29;;;;;;;5.00;1.67;;;9.70;99.90;;;;;;5043633;28;20029;-75
2023/12/29 06:15:55;;;;;;;5.10;1.58;;;9.80;99.90;;;;;;5032868;28;20048;-75
2023/12/29 06:18:21;;;;;;;3.13;1.30;;;9.70;99.90;;;;;;5036354;28;20045;-74
2023/12/29 06:20:47;;;;;;;4.35;1.17;;;9.80;99.90;;;;;;5032438;28;20037;-74
2023/12/29 06:23:13;;;;;;;2.97;1.73;;;9.80;99.90;;;;;;5032455;28;20048;-72
2023/12/29 06:25:41;;;;;;;13.35;1.17;;;9.80;99.90;;;;;;5049913;28;20585;-74
2023/12/29 06:28:08;;;;;;;12.18;1.75;;;9.80;99.90;;;;;;5040776;28;20454;-74
2023/12/29 06:30:34;;;;;;;5.53;1.10;;;9.80;99.90;;;;;;5033243;28;20083;-74
2023/12/29 06:33:00;;;;;;;4.88;1.73;;;9.80;99.90;;;;;;5020228;28;20065;-72
2023/12/29 06:35:25;;;;;;;6.32;1.77;;;9.80;99.90;;;;;;5038669;28;20042;-74
2023/12/29 06:37:51;;;;;;;4.57;0.80;;;9.80;99.90;;;;;;5032956;28;20033;-75
2023/12/29 06:40:17;;;;;;;6.00;1.17;;;9.90;99.90;;;;;;5029236;28;20465;-74
2023/12/29 06:42:43;;;;;;;13.38;2.88;;;9.90;99.90;;;;;;5031556;28;20064;-74
2023/12/29 06:45:09;;;;;;;7.53;1.83;;;9.90;99.90;;;;;;5036101;28;20079;-75
2023/12/29 06:47:35;;;;;;;2.00;1.00;;;9.90;99.90;;;;;;5035727;28;20453;-74
2023/12/29 06:50:02;;;;;;;9.73;2.53;;;9.90;99.90;;;;;;5011121;28;20041;-73
2023/12/29 06:52:33;;;;;;;1.88;0.75;;;9.90;99.90;;;;;;5044164;28;23474;-75
2023/12/29 06:55:00;;;;;;;1.88;0.47;;;9.90;99.90;;;;;;5035572;28;20080;-75
2023/12/29 06:57:27;;;;;;;5.10;1.08;;;9.90;99.90;;;;;;5015198;28;20041;-75
2023/12/29 06:59:53;;;;;;;8.82;2.33;;;9.90;99.90;;;;;;5033895;28;20060;-75
2023/12/29 07:02:18;;;;;;;8.57;1.02;;;9.90;99.90;;;;;;5028427;28;20033;-75
2023/12/29 07:04:44;;;;;;;8.85;1.70;;;9.90;99.90;;;;;;5035895;28;20130;-75
2023/12/29 07:07:10;;;;;;;7.40;2.03;;;9.90;99.90;;;;;;5035220;28;20053;-74
2023/12/29 07:09:39;;;;;;;3.83;0.90;;;9.80;99.90;;;;;;5035467;28;20567;-77
2023/12/29 07:12:06;;;;;;;11.75;1.98;;;9.80;99.90;;;;;;5022552;28;20807;-77
2023/12/29 07:14:31;;;;;;;15.70;2.13;;;9.80;99.90;;;;;;5036310;28;20611;-75
2023/12/29 07:16:58;;;;;;;12.98;2.03;;;9.80;99.90;;;;;;5031172;28;20041;-73
2023/12/29 07:19:24;;;;;;;6.20;1.27;;;9.80;99.90;;;;;;5054659;28;20034;-76
2023/12/29 07:21:50;;;;;;;8.27;1.38;;;9.80;99.90;;;;;;5031159;28;20033;-77
2023/12/29 07:24:16;;;;;;;8.77;1.70;;;9.80;99.90;;;;;;5031821;28;20037;-76
2023/12/29 07:26:42;;;;;;;10.60;1.45;;;9.80;99.90;;;;;;5034594;28;20037;-76
2023/12/29 07:29:07;;;;;;;7.35;1.02;;;9.80;99.90;;;;;;5034701;28;20045;-74
2023/12/29 07:31:33;;;;;;;14.30;2.65;;;9.90;99.90;;;;;;5031844;28;20068;-73
2023/12/29 07:33:59;;;;;;;16.73;1.90;;;9.90;99.90;;;;;;5029339;28;20103;-76
2023/12/29 07:36:25;;;;;;;1.48;0.57;;;9.90;99.90;;;;;;5021574;28;20034;-73
2023/12/29 07:38:51;;;;;;;3.72;1.40;;;9.90;99.90;;;;;;5029700;28;20049;-74
2023/12/29 07:41:18;;;;;;;7.65;1.15;;;9.90;99.90;;;;;;5027037;28;20041;-75
2023/12/29 07:43:44;;;;;;;6.80;1.58;;;9.90;99.90;;;;;;5030972;28;20453;-77
2023/12/29 07:46:10;;;;;;;12.50;2.20;;;9.90;99.90;;;;;;5032329;28;20045;-75
2023/12/29 07:49:13;;;;;;;9.75;1.85;;;10.00;99.90;;;;;;5034960;28;20133;-76
2023/12/29 07:51:43;;;;;;;15.48;1.85;;;10.00;99.90;;;;;;5063273;28;20477;-76
2023/12/29 07:54:09;;;;;;;9.32;1.05;;;10.10;99.90;;;;;;5030629;28;20037;-75
2023/12/29 07:56:36;;;;;;;6.03;0.93;;;10.10;99.90;;;;;;5034334;28;20441;-77
2023/12/29 07:59:03;;;;;;;4.05;1.20;;;10.10;99.90;;;;;;5038858;28;20060;-77
2023/12/29 08:01:29;;;;;;;5.50;1.13;;;10.00;99.90;;;;;;5031624;28;20642;-73
2023/12/29 08:03:55;;;;;;;8.40;2.30;;;10.10;99.90;;;;;;5034717;28;20045;-75
2023/12/29 08:06:20;;;;;;;11.85;1.27;;;10.10;99.90;;;;;;5029862;28;20148;-75
2023/12/29 08:08:46;;;;;;;9.05;2.88;;;10.10;99.90;;;;;;5033637;28;20041;-74
2023/12/29 08:11:16;;;;;;;8.82;1.63;;;10.20;99.90;;;;;;5033277;28;20048;-76
2023/12/29 08:13:44;;;;;;;8.13;1.05;;;10.10;99.90;;;;;;5026576;28;20060;-75
2023/12/29 08:16:11;;;;;;;22.60;2.33;;;10.10;99.90;;;;;;5034394;28;20037;-75
2023/12/29 08:18:36;;;;;;;10.07;2.13;;;10.20;99.90;;;;;;5041244;28;20037;-75
2023/12/29 08:21:02;;;;;;;6.00;1.48;;;10.10;99.90;;;;;;5031122;28;20474;-75
2023/12/29 08:23:28;;;;;;;7.97;2.60;;;10.10;99.90;;;;;;5034123;28;20049;-75
2023/12/29 08:25:57;;;;;;;3.25;1.10;;;10.10;99.90;;;;;;5031529;28;20069;-75
2023/12/29 08:28:23;;;;;;;15.60;2.55;;;10.10;99.90;;;;;;5013981;28;20104;-76
2023/12/29 08:30:48;;;;;;;11.30;2.55;;;10.10;99.90;;;;;;5013267;28;20447;-75
2023/12/29 08:33:14;;;;;;;7.90;1.65;;;10.10;99.90;;;;;;5029881;28;20034;-76
2023/12/29 08:35:41;;;;;;;12.20;1.45;;;10.20;99.90;;;;;;5013292;28;20063;-77
2023/12/29 08:38:07;;;;;;;15.02;0.75;;;10.10;99.90;;;;;;5033106;28;20520;-76
2023/12/29 08:40:33;;;;;;;3.30;0.95;;;10.10;99.90;;;;;;5028546;28;20029;-76
2023/12/29 08:42:59;;;;;;;9.75;2.03;;;10.00;99.90;;;;;;5033870;28;20529;-76
2023/12/29 08:45:25;;;;;;;6.43;1.52;;;10.00;99.90;;;;;;5052365;28;20040;-75
2023/12/29 08:47:51;;;;;;;13.55;1.58;;;9.90;99.90;;;;;;5029825;28;20067;-76
2023/12/29 08:50:17;;;;;;;12.52;1.30;;;9.90;99.90;;;;;;5030073;28;20030;-75
2023/12/29 08:52:43;;;;;;;2.25;1.20;;;9.90;99.90;;;;;;5020516;28;20050;-76
2023/12/29 08:55:09;;;;;;;12.13;3.53;;;9.90;99.90;;;;;;5023656;28;20033;-76
2023/12/29 08:57:35;;;;;;;12.98;2.53;;;9.90;99.90;;;;;;5038394;28;20033;-75
2023/12/29 09:00:01;;;;;;;7.15;1.13;;;9.90;99.90;;;;;;5019423;28;20639;-75
2023/12/29 09:02:27;;;;;;;7.22;1.52;;;9.90;99.90;;;;;;5023796;28;20037;-76
2023/12/29 09:04:53;;;;;;;5.47;1.38;;;9.80;99.90;;;;;;5052053;28;20076;-75
2023/12/29 09:07:18;;;;;;;3.40;0.68;;;9.80;99.90;;;;;;5024322;28;20058;-76
2023/12/29 09:09:44;;;;;;;2.33;1.25;;;9.80;99.90;;;;;;5025683;28;20180;-76
2023/12/29 09:12:10;;;;;;;6.20;1.45;;;9.70;99.90;;;;;;5024185;28;20064;-76
2023/12/29 09:14:36;;;;;;;16.38;2.30;;;9.80;99.90;;;;;;5052607;28;20041;-76
2023/12/29 09:17:02;;;;;;;9.77;1.95;;;9.80;99.90;;;;;;5023518;28;20069;-76
2023/12/29 09:19:27;;;;;;;5.50;2.00;;;9.90;99.90;;;;;;5021165;28;20042;-74
2023/12/29 09:21:53;;;;;;;10.48;1.38;;;9.90;99.90;;;;;;5054693;28;20138;-76
2023/12/29 09:24:19;;;;;;;5.65;1.63;;;10.00;99.90;;;;;;5026640;28;20533;-75
2023/12/29 09:26:45;;;;;;;9.63;1.55;;;10.00;99.90;;;;;;5026977;28;20045;-74
2023/12/29 09:29:10;;;;;;;12.25;2.00;;;10.10;99.90;;;;;;5043685;28;20481;-74
2023/12/29 09:31:36;;;;;;;6.50;1.83;;;10.10;99.90;;;;;;5042363;28;20037;-76
2023/12/29 09:34:02;;;;;;;7.75;1.98;;;10.10;99.90;;;;;;5026690;28;20037;-76
2023/12/29 09:36:28;;;;;;;11.05;1.40;;;10.20;99.90;;;;;;5011245;28;20154;-75
2023/12/29 09:38:54;;;;;;;8.77;1.70;;;10.20;99.90;;;;;;5023248;28;20613;-76
2023/12/29 09:41:23;;;;;;;14.25;1.25;;;10.20;99.90;;;;;;5026776;28;20064;-76
2023/12/29 09:43:49;;;;;;;13.18;1.05;;;10.30;99.90;;;;;;5023338;28;20498;-75
2023/12/29 09:46:21;;;;;;;9.27;1.80;;;10.30;99.90;;;;;;5020891;28;20053;-75
2023/12/29 09:48:47;;;;;;;5.90;2.00;;;10.30;99.90;;;;;;5053540;28;20053;-75
2023/12/29 09:51:15;;;;;;;17.45;2.05;;;10.30;99.90;;;;;;5017572;28;20049;-75
2023/12/29 09:53:41;;;;;;;15.35;1.50;;;10.30;99.90;;;;;;5024129;28;20093;-74
2023/12/29 09:56:11;;;;;;;20.85;4.50;;;10.30;99.90;;;;;;5017950;28;20037;-77
2023/12/29 09:58:37;;;;;;;10.00;2.92;;;10.20;99.90;;;;;;5024417;28;20072;-76
2023/12/29 10:01:07;;;;;;;14.43;4.22;;;10.30;99.90;;;;;;5025480;28;20083;-76
2023/12/29 10:03:33;;;;;;;12.18;2.13;;;10.30;99.90;;;;;;5042074;28;24366;-77
2023/12/29 10:06:08;;;;;;;11.30;2.67;;;10.20;99.90;;;;;;5025885;28;20064;-74
2023/12/29 10:08:34;;;;;;;7.95;2.42;;;10.20;99.90;;;;;;5016738;28;20598;-75
2023/12/29 10:11:01;;;;;;;5.28;2.00;;;10.20;99.90;;;;;;5055221;28;20041;-74
2023/12/29 10:13:29;;;;;;;7.40;1.42;;;10.20;99.90;;;;;;5018468;28;20068;-76
2023/12/29 10:16:04;;;;;;;10.23;2.63;;;10.20;99.90;;;;;;5025378;28;20122;-75
2023/12/29 10:18:46;;;;;;;5.60;1.92;;;10.20;99.90;;;;;;5020133;28;20052;-75
2023/12/29 10:21:21;;;;;;;5.80;0.75;;;10.20;99.90;;;;;;5050277;28;20041;-75
2023/12/29 10:24:00;;;;;;;4.05;2.20;;;10.20;99.90;;;;;;5052457;28;20049;-76
2023/12/29 10:26:27;;;;;;;5.95;1.88;;;10.30;99.90;;;;;;5024951;28;20037;-75
2023/12/29 10:28:52;;;;;;;4.18;0.80;;;10.30;99.90;;;;;;5019896;28;20531;-76
2023/12/29 10:31:18;;;;;;;5.72;0.95;;;10.40;99.90;;;;;;5023087;28;20044;-75
2023/12/29 10:33:50;;;;;;;5.00;0.82;;;10.50;99.90;;;;;;5019158;28;20044;-76
2023/12/29 10:36:16;;;;;;;4.68;1.30;;;10.60;99.90;;;;;;5040407;28;20156;-74
2023/12/29 10:38:42;;;;;;;5.47;0.93;;;10.60;99.90;;;;;;5023382;28;20158;-74
2023/12/29 10:41:19;;;;;;;4.35;0.75;;;10.70;99.90;;;;;;5040223;28;20434;-73
2023/12/29 10:43:52;;;;;;;5.60;0.77;;;10.80;99.90;;;;;;5007871;28;20049;-75
2023/12/29 10:46:18;;;;;;;3.97;1.55;;;10.80;99.90;;;;;;5039368;28;20482;-74
2023/12/29 10:48:45;;;;;;;10.00;2.50;;;10.90;99.90;;;;;;5019134;28;20046;-74
2023/12/29 10:51:11;;;;;;;2.35;1.00;;;11.00;99.90;;;;;;5019125;28;20047;-76
2023/12/29 10:53:42;;;;;;;6.55;2.08;;;11.10;99.90;;;;;;5021376;28;20038;-76
2023/12/29 10:56:22;;;;;;;9.18;0.90;;;11.20;99.90;;;;;;5020349;28;20049;-76
2023/12/29 10:58:59;;;;;;;7.63;0.75;;;11.30;99.90;;;;;;5018354;28;20064;-73
2023/12/29 11:01:25;;;;;;;6.28;1.40;;;11.10;99.90;;;;;;5050287;28;20045;-70
2023/12/29 11:03:59;;;;;;;8.57;1.20;;;11.10;99.90;;;;;;5039989;28;20042;-69
2023/12/29 11:06:27;;;;;;;4.00;1.15;;;10.90;99.90;;;;;;5020628;28;20044;-70
2023/12/29 11:08:53;;;;;;;12.40;1.50;;;10.80;99.90;;;;;;5038114;28;20901;-71
2023/12/29 11:11:19;;;;;;;2.72;0.70;;;10.70;99.90;;;;;;5022063;28;20053;-69
2023/12/29 11:13:46;;;;;;;3.83;1.02;;;10.60;99.90;;;;;;5035807;28;20048;-70
2023/12/29 11:16:14;;;;;;;7.80;1.08;;;10.50;99.90;;;;;;5019371;28;20064;-70
2023/12/29 11:18:42;;;;;;;10.90;1.38;;;10.40;99.90;;;;;;5022858;28;20040;-71
2023/12/29 11:21:09;;;;;;;7.57;1.20;;;10.30;99.90;;;;;;5022838;28;20405;-69
2023/12/29 11:23:35;;;;;;;5.32;0.60;;;10.30;99.90;;;;;;5022750;28;20045;-70
2023/12/29 11:26:03;;;;;;;9.35;1.58;;;10.20;99.90;;;;;;5022872;28;20041;-68
2023/12/29 11:28:29;;;;;;;9.40;1.55;;;10.20;99.90;;;;;;5018438;28;20049;-70
2023/12/29 11:30:55;;;;;;;6.93;1.10;;;10.10;99.90;;;;;;5023103;28;20080;-69
2023/12/29 11:33:30;;;;;;;5.18;1.40;;;10.10;99.90;;;;;;5023105;28;20145;-71
2023/12/29 11:36:16;;;;;;;13.90;1.25;;;10.10;99.90;;;;;;5023577;28;20504;-69
2023/12/29 11:38:49;;;;;;;4.25;1.05;;;10.00;99.90;;;;;;5021396;28;20041;-69
2023/12/29 11:41:40;;;;;;;5.88;1.67;;;10.00;99.90;;;;;;5022712;28;20052;-69
2023/12/29 11:44:06;;;;;;;4.47;1.77;;;10.00;99.90;;;;;;5022065;28;20033;-70
2023/12/29 11:46:37;;;;;;;6.60;1.17;;;10.00;99.90;;;;;;5018741;28;20055;-70
2023/12/29 11:49:04;;;;;;;6.90;1.65;;;10.00;99.90;;;;;;5008140;28;20046;-67
2023/12/29 11:51:40;;;;;;;9.13;1.98;;;10.00;99.90;;;;;;5020448;28;20037;-68
2023/12/29 11:54:08;;;;;;;6.28;0.80;;;9.90;99.90;;;;;;5040500;28;20072;-68
2023/12/29 11:56:42;;;;;;;5.30;1.60;;;9.90;99.90;;;;;;5015329;28;20042;-70
2023/12/29 11:59:25;;;;;;;5.82;1.85;;;9.90;99.90;;;;;;5019654;28;20667;-69
2023/12/29 12:01:52;;;;;;;3.25;0.50;;;9.80;99.90;;;;;;5015596;28;20054;-67
2023/12/29 12:04:35;;;;;;;6.60;1.77;;;9.80;99.90;;;;;;5015788;28;20497;-69
2023/12/29 12:07:01;;;;;;;1.67;0.80;;;9.80;99.90;;;;;;5047978;28;20058;-69
2023/12/29 12:09:27;;;;;;;6.72;1.55;;;9.80;99.90;;;;;;5016054;28;20516;-67
2023/12/29 12:11:53;;;;;;;4.32;1.10;;;9.80;99.90;;;;;;5021696;28;20041;-69
2023/12/29 12:14:51;;;;;;;5.38;0.75;;;9.80;99.90;;;;;;5017039;28;20041;-69
2023/12/29 12:17:28;;;;;;;12.00;1.02;;;9.80;99.90;;;;;;5050841;28;20051;-71
2023/12/29 12:20:06;;;;;;;4.78;0.75;;;9.80;99.90;;;;;;5048970;28;20052;-68
2023/12/29 12:22:32;;;;;;;4.13;0.60;;;9.80;99.90;;;;;;5007874;28;20393;-70
2023/12/29 12:24:59;;;;;;;11.65;1.25;;;9.80;99.90;;;;;;5020667;28;20045;-68
2023/12/29 12:27:29;;;;;;;5.93;1.10;;;9.80;99.90;;;;;;5049931;28;20049;-69
2023/12/29 12:29:58;;;;;;;8.88;2.13;;;9.70;99.90;;;;;;5014034;28;20077;-70
2023/12/29 12:32:28;;;;;;;12.40;1.23;;;9.80;99.90;;;;;;5022421;28;20369;-69
2023/12/29 12:34:55;;;;;;;3.47;1.20;;;9.80;99.90;;;;;;5012676;28;20396;-69
2023/12/29 12:37:25;;;;;;;10.32;1.95;;;9.80;99.90;;;;;;5047708;28;20120;-68
2023/12/29 12:39:52;;;;;;;4.75;1.20;;;9.80;99.90;;;;;;5016270;28;20053;-68
2023/12/29 12:42:19;;;;;;;5.03;0.80;;;9.90;99.90;;;;;;5005150;28;20501;-69
2023/12/29 12:45:01;;;;;;;4.00;0.70;;;9.90;99.90;;;;;;5021833;28;20575;-68
2023/12/29 12:47:35;;;;;;;2.70;1.50;;;9.90;99.90;;;;;;5015411;28;20042;-69
2023/12/29 12:50:01;;;;;;;8.75;1.25;;;10.00;99.90;;;;;;5016368;28;20045;-69
2023/12/29 12:52:31;;;;;;;7.22;0.88;;;10.00;99.90;;;;;;5038550;28;20041;-71